createdAt,value
2016-08-24T00:00:28.941Z,1014.88
2016-08-24T00:01:28.085Z,1014.86
2016-08-24T00:02:27.709Z,1014.82
2016-08-24T00:03:27.857Z,1014.82
2016-08-24T00:04:28.055Z,1014.81
2016-08-24T00:05:29.094Z,1014.82
2016-08-24T00:06:28.960Z,1014.81
2016-08-24T00:07:28.207Z,1014.8
2016-08-24T00:08:27.965Z,1014.76
2016-08-24T00:09:27.918Z,1014.76
2016-08-24T00:10:28.121Z,1014.76
2016-08-24T00:11:28.321Z,1014.78
2016-08-24T00:12:28.465Z,1014.74
2016-08-24T00:13:28.577Z,1014.75
2016-08-24T00:14:28.371Z,1014.76
2016-08-24T00:15:28.032Z,1014.78
2016-08-24T00:16:28.536Z,1014.77
2016-08-24T00:17:28.871Z,1014.79
2016-08-24T00:18:28.627Z,1014.76
2016-08-24T00:19:28.950Z,1014.78
2016-08-24T00:20:28.870Z,1014.74
2016-08-24T00:21:28.386Z,1014.77
2016-08-24T00:22:28.340Z,1014.76
2016-08-24T00:23:28.732Z,1014.76
2016-08-24T00:24:28.678Z,1014.78
2016-08-24T00:25:28.796Z,1014.79
2016-08-24T00:26:29.232Z,1014.81
2016-08-24T00:27:28.783Z,1014.79
2016-08-24T00:28:29.014Z,1014.78
2016-08-24T00:29:28.800Z,1014.81
2016-08-24T00:30:28.809Z,1014.76
2016-08-24T00:31:29.270Z,1014.78
2016-08-24T00:32:28.811Z,1014.75
2016-08-24T00:33:29.182Z,1014.75
2016-08-24T00:34:28.820Z,1014.76
2016-08-24T00:35:28.851Z,1014.72
2016-08-24T00:36:28.897Z,1014.75
2016-08-24T00:37:28.673Z,1014.76
2016-08-24T00:38:28.709Z,1014.74
2016-08-24T00:39:28.878Z,1014.75
2016-08-24T00:40:28.635Z,1014.77
2016-08-24T00:41:28.703Z,1014.77
2016-08-24T00:42:28.863Z,1014.76
2016-08-24T00:43:28.958Z,1014.76
2016-08-24T00:44:28.764Z,1014.79
2016-08-24T00:45:29.254Z,1014.78
2016-08-24T00:46:30.014Z,1014.77
2016-08-24T00:47:29.742Z,1014.76
2016-08-24T00:48:29.392Z,1014.74
2016-08-24T00:49:29.180Z,1014.76
2016-08-24T00:50:29.129Z,1014.74
2016-08-24T00:51:29.548Z,1014.73
2016-08-24T00:52:29.542Z,1014.79
2016-08-24T00:53:29.372Z,1014.74
2016-08-24T00:54:29.498Z,1014.78
2016-08-24T00:55:29.282Z,1014.75
2016-08-24T00:56:29.996Z,1014.73
2016-08-24T00:57:29.059Z,1014.76
2016-08-24T00:58:29.373Z,1014.76
2016-08-24T00:59:29.379Z,1014.73
2016-08-24T01:00:29.355Z,1014.72
2016-08-24T01:01:29.201Z,1014.69
2016-08-24T01:02:29.371Z,1014.71
2016-08-24T01:03:29.484Z,1014.73
2016-08-24T01:04:29.595Z,1014.71
2016-08-24T01:05:29.354Z,1014.68
2016-08-24T01:06:29.702Z,1014.68
2016-08-24T01:07:29.540Z,1014.66
2016-08-24T01:08:30.246Z,1014.67
2016-08-24T01:09:29.808Z,1014.69
2016-08-24T01:10:29.441Z,1014.67
2016-08-24T01:11:29.657Z,1014.63
2016-08-24T01:12:29.431Z,1014.63
2016-08-24T01:13:29.976Z,1014.67
2016-08-24T01:14:29.343Z,1014.63
2016-08-24T01:15:30.349Z,1014.61
2016-08-24T01:16:30.014Z,1014.63
2016-08-24T01:17:29.523Z,1014.59
2016-08-24T01:18:29.499Z,1014.59
2016-08-24T01:19:30.399Z,1014.62
2016-08-24T01:20:29.949Z,1014.6
2016-08-24T01:21:29.703Z,1014.6
2016-08-24T01:22:30.022Z,1014.6
2016-08-24T01:23:29.910Z,1014.58
2016-08-24T01:24:29.997Z,1014.58
2016-08-24T01:25:30.217Z,1014.59
2016-08-24T01:26:29.916Z,1014.61
2016-08-24T01:27:30.036Z,1014.58
2016-08-24T01:28:29.961Z,1014.58
2016-08-24T01:29:30.255Z,1014.62
2016-08-24T01:30:30.507Z,1014.57
2016-08-24T01:31:30.173Z,1014.56
2016-08-24T01:32:30.355Z,1014.6
2016-08-24T01:33:30.275Z,1014.57
2016-08-24T01:34:30.055Z,1014.53
2016-08-24T01:35:29.868Z,1014.55
2016-08-24T01:36:30.349Z,1014.55
2016-08-24T01:37:30.106Z,1014.53
2016-08-24T01:38:30.250Z,1014.55
2016-08-24T01:39:30.688Z,1014.54
2016-08-24T01:40:29.975Z,1014.57
2016-08-24T01:41:30.031Z,1014.59
2016-08-24T01:42:30.637Z,1014.56
2016-08-24T01:43:30.407Z,1014.52
2016-08-24T01:44:30.060Z,1014.53
2016-08-24T01:45:30.380Z,1014.52
2016-08-24T01:46:30.580Z,1014.52
2016-08-24T01:47:30.530Z,1014.51
2016-08-24T01:48:30.134Z,1014.51
2016-08-24T01:49:30.515Z,1014.51
2016-08-24T01:50:30.920Z,1014.5
2016-08-24T01:51:30.986Z,1014.54
2016-08-24T01:52:30.579Z,1014.57
2016-08-24T01:53:30.624Z,1014.54
2016-08-24T01:54:30.709Z,1014.59
2016-08-24T01:55:30.724Z,1014.56
2016-08-24T01:56:30.728Z,1014.57
2016-08-24T01:57:31.118Z,1014.54
2016-08-24T01:58:31.044Z,1014.54
2016-08-24T01:59:31.073Z,1014.52
2016-08-24T02:00:30.468Z,1014.54
2016-08-24T02:01:31.061Z,1014.51
2016-08-24T02:02:31.032Z,1014.49
2016-08-24T02:03:31.835Z,1014.49
2016-08-24T02:04:30.997Z,1014.48
2016-08-24T02:05:31.908Z,1014.48
2016-08-24T02:06:31.138Z,1014.41
2016-08-24T02:07:31.309Z,1014.46
2016-08-24T02:08:31.065Z,1014.42
2016-08-24T02:09:30.630Z,1014.42
2016-08-24T02:10:30.844Z,1014.39
2016-08-24T02:11:31.082Z,1014.36
2016-08-24T02:12:31.101Z,1014.38
2016-08-24T02:13:30.971Z,1014.36
2016-08-24T02:14:31.796Z,1014.38
2016-08-24T02:15:31.242Z,1014.37
2016-08-24T02:16:31.204Z,1014.34
2016-08-24T02:17:31.948Z,1014.34
2016-08-24T02:18:31.891Z,1014.3
2016-08-24T02:19:31.213Z,1014.32
2016-08-24T02:20:31.296Z,1014.33
2016-08-24T02:21:31.182Z,1014.3
2016-08-24T02:22:31.213Z,1014.29
2016-08-24T02:23:31.023Z,1014.26
2016-08-24T02:24:31.257Z,1014.25
2016-08-24T02:25:31.662Z,1014.24
2016-08-24T02:26:31.393Z,1014.22
2016-08-24T02:27:31.859Z,1014.26
2016-08-24T02:28:31.796Z,1014.19
2016-08-24T02:29:32.196Z,1014.19
2016-08-24T02:30:31.776Z,1014.16
2016-08-24T02:31:31.279Z,1014.2
2016-08-24T02:32:31.693Z,1014.18
2016-08-24T02:33:31.706Z,1014.21
2016-08-24T02:34:31.572Z,1014.21
2016-08-24T02:35:32.022Z,1014.22
2016-08-24T02:36:31.939Z,1014.22
2016-08-24T02:37:31.488Z,1014.18
2016-08-24T02:38:31.327Z,1014.17
2016-08-24T02:39:31.853Z,1014.15
2016-08-24T02:40:31.562Z,1014.14
2016-08-24T02:41:32.067Z,1014.14
2016-08-24T02:42:31.653Z,1014.15
2016-08-24T02:43:31.449Z,1014.17
2016-08-24T02:44:32.205Z,1014.18
2016-08-24T02:45:31.871Z,1014.21
2016-08-24T02:46:32.116Z,1014.22
2016-08-24T02:47:32.055Z,1014.22
2016-08-24T02:48:32.974Z,1014.23
2016-08-24T02:49:32.015Z,1014.21
2016-08-24T02:50:32.694Z,1014.23
2016-08-24T02:51:32.581Z,1014.22
2016-08-24T02:52:32.263Z,1014.23
2016-08-24T02:53:32.343Z,1014.2
2016-08-24T02:54:32.054Z,1014.23
2016-08-24T02:55:32.677Z,1014.2
2016-08-24T02:56:31.849Z,1014.24
2016-08-24T02:57:32.513Z,1014.2
2016-08-24T02:58:32.090Z,1014.22
2016-08-24T02:59:32.578Z,1014.21
2016-08-24T03:00:32.249Z,1014.21
2016-08-24T03:01:32.583Z,1014.22
2016-08-24T03:02:32.889Z,1014.19
2016-08-24T03:03:32.555Z,1014.2
2016-08-24T03:04:32.652Z,1014.19
2016-08-24T03:05:32.542Z,1014.17
2016-08-24T03:06:32.032Z,1014.15
2016-08-24T03:07:32.516Z,1014.15
2016-08-24T03:08:32.024Z,1014.14
2016-08-24T03:09:32.121Z,1014.12
2016-08-24T03:10:32.191Z,1014.12
2016-08-24T03:11:32.308Z,1014.12
2016-08-24T03:12:32.727Z,1014.1
2016-08-24T03:13:32.234Z,1014.08
2016-08-24T03:14:32.285Z,1014.08
2016-08-24T03:15:32.555Z,1014.04
2016-08-24T03:16:33.099Z,1014.03
2016-08-24T03:17:32.855Z,1014
2016-08-24T03:18:33.395Z,1014
2016-08-24T03:19:32.311Z,1014.01
2016-08-24T03:20:32.666Z,1014
2016-08-24T03:21:32.654Z,1014
2016-08-24T03:22:32.798Z,1013.97
2016-08-24T03:23:33.649Z,1013.98
2016-08-24T03:24:33.180Z,1014.02
2016-08-24T03:25:32.724Z,1014.07
2016-08-24T03:26:33.429Z,1014.04
2016-08-24T03:27:32.607Z,1014.04
2016-08-24T03:28:33.804Z,1014.01
2016-08-24T03:29:32.790Z,1014.04
2016-08-24T03:30:32.713Z,1014.05
2016-08-24T03:31:33.134Z,1013.98
2016-08-24T03:32:32.833Z,1014.02
2016-08-24T03:33:32.750Z,1014.01
2016-08-24T03:34:33.089Z,1014.03
2016-08-24T03:35:33.444Z,1014.04
2016-08-24T03:36:33.168Z,1014.03
2016-08-24T03:37:32.741Z,1014.03
2016-08-24T03:38:33.026Z,1014.06
2016-08-24T03:39:33.058Z,1014.03
2016-08-24T03:40:33.728Z,1014.04
2016-08-24T03:41:33.052Z,1014.06
2016-08-24T03:42:33.559Z,1014.02
2016-08-24T03:43:33.832Z,1014.03
2016-08-24T03:44:33.832Z,1014.03
2016-08-24T03:45:33.467Z,1014.04
2016-08-24T03:46:33.572Z,1014.04
2016-08-24T03:47:33.647Z,1014.04
2016-08-24T03:48:33.611Z,1014.04
2016-08-24T03:49:33.561Z,1014.03
2016-08-24T03:50:33.936Z,1014.03
2016-08-24T03:51:34.398Z,1013.99
2016-08-24T03:52:34.115Z,1014
2016-08-24T03:53:34.023Z,1014.03
2016-08-24T03:54:33.340Z,1013.98
2016-08-24T03:55:33.988Z,1014.04
2016-08-24T03:56:33.886Z,1014.02
2016-08-24T03:57:34.450Z,1014.01
2016-08-24T03:58:34.266Z,1014.01
2016-08-24T03:59:33.711Z,1014.05
2016-08-24T04:00:33.821Z,1014.03
2016-08-24T04:01:33.930Z,1014.07
2016-08-24T04:02:34.042Z,1014.04
2016-08-24T04:03:34.090Z,1014.03
2016-08-24T04:04:34.394Z,1014.06
2016-08-24T04:05:33.722Z,1014.05
2016-08-24T04:06:33.761Z,1014.1
2016-08-24T04:07:34.651Z,1014.09
2016-08-24T04:08:33.844Z,1014.11
2016-08-24T04:09:34.098Z,1014.1
2016-08-24T04:10:34.799Z,1014.1
2016-08-24T04:11:34.199Z,1014.09
2016-08-24T04:12:34.765Z,1014.07
2016-08-24T04:13:34.160Z,1014.07
2016-08-24T04:14:34.644Z,1014.08
2016-08-24T04:15:34.181Z,1014.11
2016-08-24T04:16:35.203Z,1014.09
2016-08-24T04:17:34.275Z,1014.05
2016-08-24T04:18:33.952Z,1014.11
2016-08-24T04:19:34.347Z,1014.05
2016-08-24T04:20:34.057Z,1014.07
2016-08-24T04:21:34.273Z,1014.07
2016-08-24T04:22:34.004Z,1014.03
2016-08-24T04:23:34.743Z,1014.09
2016-08-24T04:24:34.354Z,1014.07
2016-08-24T04:25:34.992Z,1014.09
2016-08-24T04:26:34.328Z,1014.13
2016-08-24T04:27:34.647Z,1014.1
2016-08-24T04:28:35.341Z,1014.12
2016-08-24T04:29:34.613Z,1014.1
2016-08-24T04:30:34.227Z,1014.07
2016-08-24T04:31:34.612Z,1014.09
2016-08-24T04:32:34.182Z,1014.08
2016-08-24T04:33:34.476Z,1014.11
2016-08-24T04:34:34.600Z,1014.08
2016-08-24T04:35:34.207Z,1014.08
2016-08-24T04:36:34.643Z,1014.05
2016-08-24T04:37:34.715Z,1014.1
2016-08-24T04:38:34.536Z,1014.11
2016-08-24T04:39:34.410Z,1014.11
2016-08-24T04:40:34.642Z,1014.12
2016-08-24T04:41:34.488Z,1014.15
2016-08-24T04:42:34.843Z,1014.15
2016-08-24T04:43:34.688Z,1014.16
2016-08-24T04:44:34.290Z,1014.2
2016-08-24T04:45:34.877Z,1014.19
2016-08-24T04:46:35.072Z,1014.2
2016-08-24T04:47:34.543Z,1014.19
2016-08-24T04:48:34.833Z,1014.23
2016-08-24T04:49:34.857Z,1014.23
2016-08-24T04:50:34.659Z,1014.23
2016-08-24T04:51:34.652Z,1014.25
2016-08-24T04:52:34.637Z,1014.25
2016-08-24T04:53:34.923Z,1014.25
2016-08-24T04:54:34.928Z,1014.25
2016-08-24T04:55:35.602Z,1014.26
2016-08-24T04:56:35.358Z,1014.28
2016-08-24T04:57:34.867Z,1014.35
2016-08-24T04:58:34.970Z,1014.31
2016-08-24T04:59:35.039Z,1014.32
2016-08-24T05:00:34.948Z,1014.31
2016-08-24T05:01:35.398Z,1014.35
2016-08-24T05:02:34.889Z,1014.36
2016-08-24T05:03:34.874Z,1014.34
2016-08-24T05:04:34.942Z,1014.39
2016-08-24T05:05:35.025Z,1014.34
2016-08-24T05:06:35.147Z,1014.33
2016-08-24T05:07:35.435Z,1014.37
2016-08-24T05:08:35.358Z,1014.37
2016-08-24T05:09:35.006Z,1014.32
2016-08-24T05:10:35.125Z,1014.38
2016-08-24T05:11:35.612Z,1014.35
2016-08-24T05:12:35.138Z,1014.38
2016-08-24T05:13:35.401Z,1014.34
2016-08-24T05:14:35.393Z,1014.36
2016-08-24T05:15:35.142Z,1014.37
2016-08-24T05:16:35.857Z,1014.4
2016-08-24T05:17:35.525Z,1014.43
2016-08-24T05:18:35.702Z,1014.43
2016-08-24T05:19:35.696Z,1014.47
2016-08-24T05:20:35.436Z,1014.48
2016-08-24T05:21:35.546Z,1014.46
2016-08-24T05:22:35.784Z,1014.47
2016-08-24T05:23:35.884Z,1014.48
2016-08-24T05:24:35.491Z,1014.43
2016-08-24T05:25:35.861Z,1014.48
2016-08-24T05:26:35.797Z,1014.45
2016-08-24T05:27:35.885Z,1014.46
2016-08-24T05:28:36.328Z,1014.46
2016-08-24T05:29:35.809Z,1014.47
2016-08-24T05:30:35.620Z,1014.42
2016-08-24T05:31:36.128Z,1014.46
2016-08-24T05:32:35.783Z,1014.49
2016-08-24T05:33:35.550Z,1014.47
2016-08-24T05:34:35.695Z,1014.51
2016-08-24T05:35:36.642Z,1014.5
2016-08-24T05:36:35.733Z,1014.5
2016-08-24T05:37:35.846Z,1014.52
2016-08-24T05:38:36.507Z,1014.48
2016-08-24T05:39:35.937Z,1014.49
2016-08-24T05:40:35.780Z,1014.5
2016-08-24T05:41:35.945Z,1014.53
2016-08-24T05:42:36.060Z,1014.5
2016-08-24T05:43:36.103Z,1014.52
2016-08-24T05:44:36.599Z,1014.57
2016-08-24T05:45:36.035Z,1014.52
2016-08-24T05:46:36.609Z,1014.53
2016-08-24T05:47:36.460Z,1014.51
2016-08-24T05:48:36.546Z,1014.55
2016-08-24T05:49:36.300Z,1014.54
2016-08-24T05:50:36.392Z,1014.54
2016-08-24T05:51:36.296Z,1014.54
2016-08-24T05:52:36.460Z,1014.54
2016-08-24T05:53:36.219Z,1014.54
2016-08-24T05:54:36.000Z,1014.51
2016-08-24T05:55:36.548Z,1014.53
2016-08-24T05:56:36.532Z,1014.52
2016-08-24T05:57:36.254Z,1014.56
2016-08-24T05:58:36.741Z,1014.57
2016-08-24T05:59:36.418Z,1014.61
2016-08-24T06:00:36.673Z,1014.6
2016-08-24T06:01:36.242Z,1014.6
2016-08-24T06:02:36.791Z,1014.55
2016-08-24T06:03:36.748Z,1014.65
2016-08-24T06:04:36.776Z,1014.55
2016-08-24T06:05:36.537Z,1014.59
2016-08-24T06:06:36.792Z,1014.6
2016-08-24T06:07:36.928Z,1014.61
2016-08-24T06:08:36.670Z,1014.57
2016-08-24T06:09:36.370Z,1014.61
2016-08-24T06:10:37.159Z,1014.59
2016-08-24T06:11:36.523Z,1014.6
2016-08-24T06:12:37.029Z,1014.6
2016-08-24T06:13:36.574Z,1014.59
2016-08-24T06:14:36.963Z,1014.58
2016-08-24T06:15:36.722Z,1014.62
2016-08-24T06:16:37.079Z,1014.6
2016-08-24T06:17:36.516Z,1014.61
2016-08-24T06:18:36.944Z,1014.66
2016-08-24T06:19:37.629Z,1014.6
2016-08-24T06:20:37.146Z,1014.61
2016-08-24T06:21:37.023Z,1014.62
2016-08-24T06:22:36.907Z,1014.64
2016-08-24T06:23:37.031Z,1014.69
2016-08-24T06:24:36.975Z,1014.69
2016-08-24T06:25:37.510Z,1014.66
2016-08-24T06:26:36.880Z,1014.7
2016-08-24T06:27:37.268Z,1014.75
2016-08-24T06:28:37.231Z,1014.72
2016-08-24T06:29:37.423Z,1014.73
2016-08-24T06:30:37.359Z,1014.74
2016-08-24T06:31:36.947Z,1014.71
2016-08-24T06:32:37.120Z,1014.74
2016-08-24T06:33:37.176Z,1014.75
2016-08-24T06:34:37.190Z,1014.77
2016-08-24T06:35:37.289Z,1014.79
2016-08-24T06:36:37.435Z,1014.86
2016-08-24T06:37:37.774Z,1014.94
2016-08-24T06:38:37.239Z,1015.07
2016-08-24T06:39:37.661Z,1014.95
2016-08-24T06:40:37.397Z,1014.86
2016-08-24T06:41:37.625Z,1014.79
2016-08-24T06:42:37.511Z,1014.77
2016-08-24T06:43:37.576Z,1014.75
2016-08-24T06:44:37.976Z,1014.77
2016-08-24T06:45:37.797Z,1014.79
2016-08-24T06:46:37.515Z,1014.75
2016-08-24T06:47:37.757Z,1014.76
2016-08-24T06:48:37.726Z,1014.77
2016-08-24T06:49:37.807Z,1014.76
2016-08-24T06:50:37.959Z,1014.72
2016-08-24T06:51:37.931Z,1014.71
2016-08-24T06:52:37.499Z,1014.67
2016-08-24T06:53:37.983Z,1014.67
2016-08-24T06:54:37.954Z,1014.63
2016-08-24T06:55:38.476Z,1014.66
2016-08-24T06:56:37.768Z,1014.72
2016-08-24T06:57:37.974Z,1014.64
2016-08-24T06:58:37.622Z,1014.63
2016-08-24T06:59:37.731Z,1014.64
2016-08-24T07:00:37.824Z,1014.65
2016-08-24T07:01:37.900Z,1014.57
2016-08-24T07:02:38.838Z,1014.57
2016-08-24T07:03:38.130Z,1014.52
2016-08-24T07:04:38.074Z,1014.47
2016-08-24T07:05:38.010Z,1014.5
2016-08-24T07:06:37.892Z,1014.5
2016-08-24T07:07:37.873Z,1014.49
2016-08-24T07:08:38.584Z,1014.53
2016-08-24T07:09:38.133Z,1014.47
2016-08-24T07:10:38.603Z,1014.49
2016-08-24T07:11:38.921Z,1014.49
2016-08-24T07:12:38.592Z,1014.5
2016-08-24T07:13:38.035Z,1014.56
2016-08-24T07:14:38.666Z,1014.59
2016-08-24T07:15:38.458Z,1014.61
2016-08-24T07:16:38.655Z,1014.66
2016-08-24T07:17:38.786Z,1014.63
2016-08-24T07:18:38.586Z,1014.63
2016-08-24T07:19:38.623Z,1014.62
2016-08-24T07:20:39.011Z,1014.6
2016-08-24T07:21:38.479Z,1014.63
2016-08-24T07:22:38.958Z,1014.6
2016-08-24T07:23:39.383Z,1014.54
2016-08-24T07:24:39.069Z,1014.57
2016-08-24T07:25:39.068Z,1014.53
2016-08-24T07:26:39.253Z,1014.54
2016-08-24T07:27:38.253Z,1014.56
2016-08-24T07:28:39.116Z,1014.55
2016-08-24T07:29:39.080Z,1014.54
2016-08-24T07:30:39.036Z,1014.55
2016-08-24T07:31:39.018Z,1014.58
2016-08-24T07:32:38.875Z,1014.56
2016-08-24T07:33:39.176Z,1014.57
2016-08-24T07:34:39.368Z,1014.59
2016-08-24T07:35:38.963Z,1014.59
2016-08-24T07:36:39.133Z,1014.59
2016-08-24T07:37:39.063Z,1014.59
2016-08-24T07:38:39.175Z,1014.55
2016-08-24T07:39:39.367Z,1014.55
2016-08-24T07:40:39.680Z,1014.63
2016-08-24T07:41:39.117Z,1014.62
2016-08-24T07:42:39.303Z,1014.61
2016-08-24T07:43:38.995Z,1014.6
2016-08-24T07:44:39.008Z,1014.59
2016-08-24T07:45:38.908Z,1014.59
2016-08-24T07:46:39.261Z,1014.59
2016-08-24T07:47:39.017Z,1014.59
2016-08-24T07:48:39.132Z,1014.58
2016-08-24T07:49:39.049Z,1014.56
2016-08-24T07:50:39.312Z,1014.52
2016-08-24T07:51:39.272Z,1014.55
2016-08-24T07:52:38.978Z,1014.52
2016-08-24T07:53:39.912Z,1014.48
2016-08-24T07:54:39.423Z,1014.48
2016-08-24T07:55:39.184Z,1014.45
2016-08-24T07:56:39.460Z,1014.46
2016-08-24T07:57:39.748Z,1014.42
2016-08-24T07:58:40.103Z,1014.42
2016-08-24T07:59:39.367Z,1014.41
2016-08-24T08:00:39.407Z,1014.42
2016-08-24T08:01:39.304Z,1014.34
2016-08-24T08:02:39.815Z,1014.36
2016-08-24T08:03:39.540Z,1014.44
2016-08-24T08:04:39.609Z,1014.41
2016-08-24T08:05:39.611Z,1014.39
2016-08-24T08:06:39.503Z,1014.43
2016-08-24T08:07:40.010Z,1014.41
2016-08-24T08:08:39.631Z,1014.42
2016-08-24T08:09:39.933Z,1014.43
2016-08-24T08:10:39.905Z,1014.42
2016-08-24T08:11:40.235Z,1014.44
2016-08-24T08:12:40.050Z,1014.45
2016-08-24T08:13:39.983Z,1014.43
2016-08-24T08:14:40.053Z,1014.43
2016-08-24T08:15:40.301Z,1014.43
2016-08-24T08:16:40.328Z,1014.42
2016-08-24T08:17:40.071Z,1014.38
2016-08-24T08:18:40.248Z,1014.37
2016-08-24T08:19:40.673Z,1014.41
2016-08-24T08:20:40.128Z,1014.37
2016-08-24T08:21:39.931Z,1014.38
2016-08-24T08:22:40.095Z,1014.41
2016-08-24T08:23:40.044Z,1014.34
2016-08-24T08:24:40.037Z,1014.35
2016-08-24T08:25:40.896Z,1014.37
2016-08-24T08:26:40.275Z,1014.34
2016-08-24T08:27:40.220Z,1014.33
2016-08-24T08:28:40.751Z,1014.37
2016-08-24T08:29:40.223Z,1014.36
2016-08-24T08:30:40.897Z,1014.37
2016-08-24T08:31:40.639Z,1014.37
2016-08-24T08:32:40.518Z,1014.36
2016-08-24T08:33:40.554Z,1014.35
2016-08-24T08:34:40.574Z,1014.38
2016-08-24T08:35:40.939Z,1014.33
2016-08-24T08:36:40.772Z,1014.36
2016-08-24T08:37:40.707Z,1014.35
2016-08-24T08:38:40.664Z,1014.36
2016-08-24T08:39:40.898Z,1014.31
2016-08-24T08:40:40.911Z,1014.33
2016-08-24T08:41:40.683Z,1014.34
2016-08-24T08:42:40.621Z,1014.34
2016-08-24T08:43:40.817Z,1014.31
2016-08-24T08:44:41.049Z,1014.32
2016-08-24T08:45:41.110Z,1014.38
2016-08-24T08:46:41.263Z,1014.36
2016-08-24T08:47:41.285Z,1014.36
2016-08-24T08:48:41.106Z,1014.35
2016-08-24T08:49:41.112Z,1014.33
2016-08-24T08:50:41.592Z,1014.34
2016-08-24T08:51:40.787Z,1014.33
2016-08-24T08:52:41.344Z,1014.38
2016-08-24T08:53:42.322Z,1014.39
2016-08-24T08:54:41.168Z,1014.33
2016-08-24T08:55:41.123Z,1014.32
2016-08-24T08:56:41.480Z,1014.38
2016-08-24T08:57:41.780Z,1014.37
2016-08-24T08:58:41.751Z,1014.36
2016-08-24T08:59:41.503Z,1014.34
2016-08-24T09:00:41.980Z,1014.3
2016-08-24T09:01:41.363Z,1014.35
2016-08-24T09:02:41.663Z,1014.33
2016-08-24T09:03:41.719Z,1014.33
2016-08-24T09:04:41.753Z,1014.36
2016-08-24T09:05:41.411Z,1014.3
2016-08-24T09:06:41.897Z,1014.31
2016-08-24T09:07:42.628Z,1014.29
2016-08-24T09:08:42.266Z,1014.29
2016-08-24T09:09:42.004Z,1014.27
2016-08-24T09:10:41.567Z,1014.28
2016-08-24T09:11:41.578Z,1014.29
2016-08-24T09:12:41.983Z,1014.27
2016-08-24T09:13:42.065Z,1014.24
2016-08-24T09:14:41.926Z,1014.26
2016-08-24T09:15:42.405Z,1014.28
2016-08-24T09:16:43.200Z,1014.26
2016-08-24T09:17:41.723Z,1014.25
2016-08-24T09:18:41.715Z,1014.25
2016-08-24T09:19:41.844Z,1014.24
2016-08-24T09:20:42.315Z,1014.24
2016-08-24T09:21:41.859Z,1014.24
2016-08-24T09:22:42.557Z,1014.2
2016-08-24T09:23:42.475Z,1014.2
2016-08-24T09:24:42.455Z,1014.2
2016-08-24T09:25:42.437Z,1014.18
2016-08-24T09:26:42.197Z,1014.19
2016-08-24T09:27:42.276Z,1014.22
2016-08-24T09:28:42.572Z,1014.19
2016-08-24T09:29:42.667Z,1014.17
2016-08-24T09:30:42.313Z,1014.14
2016-08-24T09:31:42.376Z,1014.11
2016-08-24T09:32:43.172Z,1014.16
2016-08-24T09:33:42.835Z,1014.13
2016-08-24T09:34:42.973Z,1014.13
2016-08-24T09:35:42.907Z,1014.13
2016-08-24T09:36:42.943Z,1014.12
2016-08-24T09:37:43.143Z,1014.14
2016-08-24T09:38:42.915Z,1014.13
2016-08-24T09:39:42.547Z,1014.17
2016-08-24T09:40:42.925Z,1014.15
2016-08-24T09:41:42.981Z,1014.12
2016-08-24T09:42:42.972Z,1014.11
2016-08-24T09:43:43.821Z,1014.12
2016-08-24T09:44:43.733Z,1014.15
2016-08-24T09:45:43.338Z,1014.11
2016-08-24T09:46:42.925Z,1014.13
2016-08-24T09:47:42.890Z,1014.12
2016-08-24T09:48:42.843Z,1014.12
2016-08-24T09:49:44.178Z,1014.06
2016-08-24T09:50:43.019Z,1014.09
2016-08-24T09:51:44.174Z,1014.11
2016-08-24T09:52:43.709Z,1014.13
2016-08-24T09:53:44.228Z,1014.07
2016-08-24T09:54:43.185Z,1014.06
2016-08-24T09:55:43.431Z,1014.05
2016-08-24T09:56:43.458Z,1014.03
2016-08-24T09:57:43.639Z,1014
2016-08-24T09:58:43.771Z,1013.98
2016-08-24T09:59:43.801Z,1013.89
2016-08-24T10:00:43.750Z,1013.82
2016-08-24T10:01:44.079Z,1013.8
2016-08-24T10:02:44.135Z,1013.86
2016-08-24T10:03:43.988Z,1013.95
2016-08-24T10:04:43.970Z,1013.92
2016-08-24T10:05:43.867Z,1013.93
2016-08-24T10:06:44.084Z,1013.93
2016-08-24T10:07:44.086Z,1013.97
2016-08-24T10:08:44.557Z,1013.93
2016-08-24T10:09:44.207Z,1013.93
2016-08-24T10:10:44.045Z,1013.93
2016-08-24T10:11:44.495Z,1013.91
2016-08-24T10:12:43.822Z,1013.9
2016-08-24T10:13:44.206Z,1013.92
2016-08-24T10:14:44.416Z,1013.83
2016-08-24T10:15:44.538Z,1013.82
2016-08-24T10:16:43.954Z,1013.82
2016-08-24T10:17:44.457Z,1013.85
2016-08-24T10:18:44.532Z,1013.86
2016-08-24T10:19:44.368Z,1013.91
2016-08-24T10:20:44.395Z,1013.87
2016-08-24T10:21:44.509Z,1013.87
2016-08-24T10:22:45.044Z,1013.83
2016-08-24T10:23:44.464Z,1013.86
2016-08-24T10:24:44.506Z,1013.88
2016-08-24T10:25:44.600Z,1013.85
2016-08-24T10:26:45.101Z,1013.85
2016-08-24T10:27:44.763Z,1013.84
2016-08-24T10:28:44.868Z,1013.83
2016-08-24T10:29:44.750Z,1013.81
2016-08-24T10:30:45.078Z,1013.8
2016-08-24T10:31:44.789Z,1013.77
2016-08-24T10:32:45.317Z,1013.72
2016-08-24T10:33:44.885Z,1013.7
2016-08-24T10:34:45.753Z,1013.75
2016-08-24T10:35:45.192Z,1013.74
2016-08-24T10:36:45.038Z,1013.68
2016-08-24T10:37:45.606Z,1013.76
2016-08-24T10:38:45.243Z,1013.75
2016-08-24T10:39:45.617Z,1013.73
2016-08-24T10:40:45.296Z,1013.77
2016-08-24T10:41:45.286Z,1013.74
2016-08-24T10:42:45.284Z,1013.76
2016-08-24T10:43:46.223Z,1013.7
2016-08-24T10:44:45.352Z,1013.72
2016-08-24T10:45:45.556Z,1013.66
2016-08-24T10:46:45.219Z,1013.63
2016-08-24T10:47:45.643Z,1013.6
2016-08-24T10:48:46.025Z,1013.58
2016-08-24T10:49:45.397Z,1013.54
2016-08-24T10:50:45.922Z,1013.59
2016-08-24T10:51:45.556Z,1013.59
2016-08-24T10:52:46.016Z,1013.58
2016-08-24T10:53:45.684Z,1013.47
2016-08-24T10:54:45.592Z,1013.48
2016-08-24T10:55:46.156Z,1013.48
2016-08-24T10:56:45.561Z,1013.43
2016-08-24T10:57:46.513Z,1013.49
2016-08-24T10:58:46.163Z,1013.44
2016-08-24T10:59:45.729Z,1013.39
2016-08-24T11:00:46.736Z,1013.36
2016-08-24T11:01:46.456Z,1013.35
2016-08-24T11:02:46.037Z,1013.35
2016-08-24T11:03:46.585Z,1013.27
2016-08-24T11:04:46.158Z,1013.27
2016-08-24T11:05:46.107Z,1013.27
2016-08-24T11:06:46.742Z,1013.32
2016-08-24T11:07:45.981Z,1013.28
2016-08-24T11:08:46.195Z,1013.25
2016-08-24T11:09:46.428Z,1013.19
2016-08-24T11:10:46.160Z,1013.22
2016-08-24T11:11:46.490Z,1013.21
2016-08-24T11:12:46.474Z,1013.21
2016-08-24T11:13:46.953Z,1013.14
2016-08-24T11:14:46.362Z,1013.2
2016-08-24T11:15:47.109Z,1013.14
2016-08-24T11:16:46.852Z,1013.18
2016-08-24T11:17:46.747Z,1013.19
2016-08-24T11:18:46.960Z,1013.15
2016-08-24T11:19:47.453Z,1013.18
2016-08-24T11:20:46.897Z,1013.14
2016-08-24T11:21:47.268Z,1013.12
2016-08-24T11:22:46.802Z,1013.11
2016-08-24T11:23:46.916Z,1013.12
2016-08-24T11:24:46.671Z,1013.13
2016-08-24T11:25:46.796Z,1013.11
2016-08-24T11:26:47.018Z,1013.11
2016-08-24T11:27:47.179Z,1013.15
2016-08-24T11:28:47.072Z,1013.13
2016-08-24T11:29:47.263Z,1013.09
2016-08-24T11:30:47.709Z,1013.09
2016-08-24T11:31:46.874Z,1013.11
2016-08-24T11:32:46.974Z,1013.09
2016-08-24T11:33:47.125Z,1013.03
2016-08-24T11:34:47.203Z,1013.08
2016-08-24T11:35:47.346Z,1013.09
2016-08-24T11:36:47.577Z,1013.07
2016-08-24T11:37:47.387Z,1013.06
2016-08-24T11:38:47.929Z,1013.04
2016-08-24T11:39:48.414Z,1013.06
2016-08-24T11:40:47.782Z,1013.1
2016-08-24T11:41:47.611Z,1013.13
2016-08-24T11:42:47.848Z,1013.08
2016-08-24T11:43:47.488Z,1013.05
2016-08-24T11:44:47.660Z,1013.06
2016-08-24T11:45:47.503Z,1013.04
2016-08-24T11:46:47.820Z,1013.03
2016-08-24T11:47:47.850Z,1012.99
2016-08-24T11:48:47.775Z,1013.01
2016-08-24T11:49:47.912Z,1012.98
2016-08-24T11:50:48.182Z,1012.95
2016-08-24T11:51:47.768Z,1012.98
2016-08-24T11:52:47.782Z,1012.99
2016-08-24T11:53:48.129Z,1012.96
2016-08-24T11:54:48.287Z,1012.94
2016-08-24T11:55:47.919Z,1012.91
2016-08-24T11:56:48.576Z,1012.87
2016-08-24T11:57:48.635Z,1012.84
2016-08-24T11:58:48.669Z,1012.8
2016-08-24T11:59:48.290Z,1012.78
2016-08-24T12:00:48.641Z,1012.72
2016-08-24T12:01:48.928Z,1012.74
2016-08-24T12:02:49.392Z,1012.76
2016-08-24T12:03:49.467Z,1012.78
2016-08-24T12:04:49.155Z,1012.75
2016-08-24T12:05:48.814Z,1012.82
2016-08-24T12:06:49.211Z,1012.85
2016-08-24T12:07:48.949Z,1012.95
2016-08-24T12:08:49.173Z,1012.94